Time;durP1;ratioP1;P1;durP2;ratioP2;P2;SDS_P1;SDS_P2;PMS_P1;PMS_P2;Temp;Humidity;BMP_temperature;BMP_pressure;BME280_temperature;BME280_humidity;BME280_pressure;Samples;Min_cycle;Max_cycle;Signal;HPM_P1;HPM_P2
2022/05/26 00:01:04;;;;;;;0.80;0.43;;;;;;;;;;5041349;28;20203;-74
2022/05/26 00:03:31;;;;;;;5.17;0.70;;;;;;;;;;5045284;28;20211;-74
2022/05/26 00:05:59;;;;;;;3.17;0.60;;;;;;;;;;5045551;28;20208;-74
2022/05/26 00:08:26;;;;;;;1.40;0.50;;;;;;;;;;5042910;28;20207;-73
2022/05/26 00:10:55;;;;;;;1.27;0.60;;;;;;;;;;5044706;28;20717;-74
2022/05/26 00:13:22;;;;;;;2.20;0.50;;;;;;;;;;5045934;28;20297;-74
2022/05/26 00:15:49;;;;;;;1.53;0.63;;;;;;;;;;5045831;28;20584;-74
2022/05/26 00:18:17;;;;;;;3.47;0.70;;;;;;;;;;5045262;28;20305;-74
2022/05/26 00:20:44;;;;;;;1.23;0.60;;;;;;;;;;5041325;28;20227;-74
2022/05/26 00:23:11;;;;;;;2.07;0.60;;;;;;;;;;5048042;28;20231;-74
2022/05/26 00:25:39;;;;;;;3.50;0.63;;;;;;;;;;5044525;28;20207;-73
2022/05/26 00:28:08;;;;;;;4.20;1.07;;;;;;;;;;5044592;28;20241;-74
2022/05/26 00:30:37;;;;;;;2.77;0.60;;;;;;;;;;5044031;28;20229;-73
2022/05/26 00:33:04;;;;;;;1.57;0.53;;;;;;;;;;5043513;28;20229;-74
2022/05/26 00:35:34;;;;;;;4.03;0.50;;;;;;;;;;5043683;28;20644;-73
2022/05/26 00:38:01;;;;;;;4.00;0.60;;;;;;;;;;5044634;28;20310;-74
2022/05/26 00:40:29;;;;;;;2.07;0.60;;;;;;;;;;5046707;28;20231;-74
2022/05/26 00:42:56;;;;;;;1.63;0.53;;;;;;;;;;5041936;28;20258;-74
2022/05/26 00:45:24;;;;;;;4.30;0.60;;;;;;;;;;5044589;28;20290;-74
2022/05/26 00:47:52;;;;;;;2.13;0.60;;;;;;;;;;5044478;28;20274;-74
2022/05/26 00:50:22;;;;;;;0.97;0.50;;;;;;;;;;5042358;28;20688;-74
2022/05/26 00:52:52;;;;;;;2.57;0.50;;;;;;;;;;5046344;28;20322;-73
2022/05/26 00:55:23;;;;;;;2.53;0.77;;;;;;;;;;5044985;28;20219;-74
2022/05/26 00:57:52;;;;;;;1.60;0.50;;;;;;;;;;5044156;28;20678;-74
2022/05/26 01:00:20;;;;;;;3.47;0.50;;;;;;;;;;5046715;28;20290;-74
2022/05/26 01:02:53;;;;;;;3.00;0.50;;;;;;;;;;5046506;28;20723;-73
2022/05/26 01:05:22;;;;;;;1.83;0.70;;;;;;;;;;5046927;28;20245;-73
2022/05/26 01:07:50;;;;;;;1.33;0.70;;;;;;;;;;5046967;28;20202;-73
2022/05/26 01:10:18;;;;;;;2.10;0.40;;;;;;;;;;5044228;28;20302;-73
2022/05/26 01:12:45;;;;;;;2.23;0.87;;;;;;;;;;5042921;28;20219;-74
2022/05/26 01:15:15;;;;;;;1.20;0.50;;;;;;;;;;5046448;28;20205;-73
2022/05/26 01:17:46;;;;;;;1.03;0.40;;;;;;;;;;5046734;28;20300;-74
2022/05/26 01:20:40;;;;;;;3.10;0.50;;;;;;;;;;5040247;28;20290;-74
2022/05/26 01:23:27;;;;;;;3.33;0.60;;;;;;;;;;5009296;28;20262;-73
2022/05/26 01:26:16;;;;;;;4.07;0.70;;;;;;;;;;5044680;28;20286;-74
2022/05/26 01:28:55;;;;;;;4.63;0.60;;;;;;;;;;5044844;28;20742;-74
2022/05/26 01:31:34;;;;;;;1.03;0.53;;;;;;;;;;5045490;28;20777;-74
2022/05/26 01:34:05;;;;;;;2.77;0.53;;;;;;;;;;5042576;28;20596;-74
2022/05/26 01:36:37;;;;;;;3.23;0.63;;;;;;;;;;5042721;28;20824;-74
2022/05/26 01:39:08;;;;;;;1.50;0.50;;;;;;;;;;5042301;28;20211;-74
2022/05/26 01:41:51;;;;;;;6.80;0.60;;;;;;;;;;5039028;28;20348;-74
2022/05/26 01:44:23;;;;;;;5.63;0.60;;;;;;;;;;5045707;28;20651;-74
2022/05/26 01:46:52;;;;;;;4.43;0.60;;;;;;;;;;5038420;28;20211;-74
2022/05/26 01:49:24;;;;;;;0.83;0.40;;;;;;;;;;5043945;28;20217;-74
2022/05/26 01:51:54;;;;;;;1.63;0.47;;;;;;;;;;5041782;28;20241;-74
2022/05/26 01:54:25;;;;;;;0.87;0.43;;;;;;;;;;5043448;28;20210;-74
2022/05/26 01:56:54;;;;;;;3.30;0.60;;;;;;;;;;5042650;28;20298;-73
2022/05/26 01:59:23;;;;;;;2.43;0.73;;;;;;;;;;5042897;28;20245;-74
2022/05/26 02:01:54;;;;;;;2.93;0.70;;;;;;;;;;5039469;28;20274;-74
2022/05/26 02:04:24;;;;;;;3.73;0.70;;;;;;;;;;5045343;28;20777;-74
2022/05/26 02:06:54;;;;;;;1.57;0.50;;;;;;;;;;5045246;28;20213;-74
2022/05/26 02:09:24;;;;;;;3.07;0.53;;;;;;;;;;5046273;28;20217;-73
2022/05/26 02:12:02;;;;;;;3.47;0.57;;;;;;;;;;5046380;28;20239;-74
2022/05/26 02:14:33;;;;;;;2.40;0.50;;;;;;;;;;5048506;28;20214;-74
2022/05/26 02:17:04;;;;;;;2.77;0.60;;;;;;;;;;5047669;28;20292;-74
2022/05/26 02:19:33;;;;;;;3.03;0.60;;;;;;;;;;5049530;28;20683;-74
2022/05/26 02:22:03;;;;;;;3.93;0.60;;;;;;;;;;5050751;28;20222;-74
2022/05/26 02:24:34;;;;;;;2.30;0.53;;;;;;;;;;5046654;28;20662;-73
2022/05/26 02:27:01;;;;;;;3.80;0.80;;;;;;;;;;5049559;28;20205;-73
2022/05/26 02:32:15;;;;;;;0.97;0.43;;;;;;;;;;5048643;28;20293;-76
2022/05/26 02:34:44;;;;;;;1.33;0.83;;;;;;;;;;5049490;28;20203;-76
2022/05/26 02:37:12;;;;;;;3.33;0.60;;;;;;;;;;5052812;28;20209;-73
2022/05/26 02:39:39;;;;;;;4.43;0.80;;;;;;;;;;5051296;28;20234;-76
2022/05/26 02:42:06;;;;;;;0.97;0.43;;;;;;;;;;5052529;28;20223;-74
2022/05/26 02:44:34;;;;;;;1.63;0.60;;;;;;;;;;5046827;28;20204;-74
2022/05/26 02:47:12;;;;;;;2.30;0.60;;;;;;;;;;5049196;28;20206;-76
2022/05/26 02:49:44;;;;;;;1.57;0.63;;;;;;;;;;5047562;28;20784;-75
2022/05/26 02:52:17;;;;;;;4.03;0.60;;;;;;;;;;5045804;28;20622;-75
2022/05/26 02:54:50;;;;;;;2.90;0.60;;;;;;;;;;5048918;28;20211;-74
2022/05/26 02:57:21;;;;;;;2.30;0.70;;;;;;;;;;5052756;28;20298;-75
2022/05/26 02:59:51;;;;;;;0.77;0.50;;;;;;;;;;5046556;28;20206;-74
2022/05/26 03:02:21;;;;;;;1.60;0.60;;;;;;;;;;5050712;28;20321;-75
2022/05/26 03:04:51;;;;;;;3.27;0.50;;;;;;;;;;5049046;28;20218;-75
2022/05/26 03:07:20;;;;;;;3.60;0.50;;;;;;;;;;5046777;28;20289;-76
2022/05/26 03:09:48;;;;;;;3.20;0.67;;;;;;;;;;5050440;28;20217;-75
2022/05/26 03:12:25;;;;;;;2.60;0.50;;;;;;;;;;5050461;28;20261;-75
2022/05/26 03:14:53;;;;;;;0.90;0.47;;;;;;;;;;5050033;28;20207;-75
2022/05/26 03:17:20;;;;;;;1.40;0.40;;;;;;;;;;5050266;28;20214;-75
2022/05/26 03:19:47;;;;;;;1.57;0.60;;;;;;;;;;5043849;28;20209;-76
2022/05/26 03:22:16;;;;;;;3.70;0.60;;;;;;;;;;5049033;28;20230;-75
2022/05/26 03:24:43;;;;;;;1.70;0.40;;;;;;;;;;5047395;28;20745;-74
2022/05/26 03:27:10;;;;;;;2.27;0.50;;;;;;;;;;5044596;28;20218;-76
2022/05/26 03:29:37;;;;;;;1.43;0.60;;;;;;;;;;5050324;28;20298;-75
2022/05/26 03:32:06;;;;;;;1.67;0.50;;;;;;;;;;5047880;28;20683;-75
2022/05/26 03:42:50;;;;;;;0.97;0.40;;;;;;;;;;5046410;28;20697;-76
2022/05/26 03:45:18;;;;;;;2.43;0.60;;;;;;;;;;5047839;28;20697;-75
2022/05/26 03:47:45;;;;;;;1.70;0.53;;;;;;;;;;5049355;28;20207;-76
2022/05/26 03:50:12;;;;;;;0.80;0.40;;;;;;;;;;5046475;28;20207;-76
2022/05/26 03:52:41;;;;;;;2.37;0.87;;;;;;;;;;5046364;28;20219;-76
2022/05/26 03:55:08;;;;;;;2.63;0.50;;;;;;;;;;5043782;28;20218;-75
2022/05/26 03:57:36;;;;;;;1.33;0.53;;;;;;;;;;5045973;28;20294;-75
2022/05/26 04:00:03;;;;;;;2.73;0.50;;;;;;;;;;5042050;28;20204;-76
2022/05/26 04:02:30;;;;;;;1.53;0.40;;;;;;;;;;5047588;28;20259;-76
2022/05/26 04:04:57;;;;;;;1.97;0.50;;;;;;;;;;5046698;28;20557;-75
2022/05/26 04:07:24;;;;;;;3.53;0.67;;;;;;;;;;5043531;28;20745;-75
2022/05/26 04:09:53;;;;;;;0.63;0.40;;;;;;;;;;5045276;28;20211;-75
2022/05/26 04:12:20;;;;;;;3.80;0.50;;;;;;;;;;5046155;28;20319;-75
2022/05/26 04:14:47;;;;;;;1.73;0.40;;;;;;;;;;5041575;28;20266;-75
2022/05/26 04:17:15;;;;;;;2.33;0.50;;;;;;;;;;5046619;28;20566;-76
2022/05/26 04:19:42;;;;;;;0.83;0.50;;;;;;;;;;5044881;28;20271;-75
2022/05/26 04:22:19;;;;;;;0.53;0.40;;;;;;;;;;5048436;28;20220;-75
2022/05/26 04:24:46;;;;;;;1.07;0.50;;;;;;;;;;5043846;28;20206;-75
2022/05/26 04:27:15;;;;;;;1.67;0.50;;;;;;;;;;5043109;28;20301;-75
2022/05/26 04:29:42;;;;;;;1.63;0.50;;;;;;;;;;5044503;28;20306;-75
2022/05/26 04:32:27;;;;;;;1.10;0.50;;;;;;;;;;5044005;28;20224;-76
2022/05/26 04:34:55;;;;;;;0.70;0.50;;;;;;;;;;5043550;28;20214;-76
2022/05/26 04:37:23;;;;;;;0.70;0.50;;;;;;;;;;5043325;28;20666;-73
2022/05/26 04:39:51;;;;;;;2.47;0.50;;;;;;;;;;5043513;28;20218;-75
2022/05/26 04:42:20;;;;;;;2.43;0.50;;;;;;;;;;5041242;28;20219;-75
2022/05/26 04:44:47;;;;;;;1.67;0.50;;;;;;;;;;5044756;28;20210;-75
2022/05/26 04:47:15;;;;;;;0.50;0.50;;;;;;;;;;5042347;28;20226;-76
2022/05/26 04:49:43;;;;;;;2.93;0.60;;;;;;;;;;5046259;28;20290;-75
2022/05/26 04:52:11;;;;;;;2.13;0.30;;;;;;;;;;5042373;28;20241;-75
2022/05/26 04:54:39;;;;;;;0.80;0.40;;;;;;;;;;5043289;28;20301;-76
2022/05/26 04:57:06;;;;;;;4.43;0.60;;;;;;;;;;5044389;28;20211;-75
2022/05/26 04:59:35;;;;;;;1.63;0.80;;;;;;;;;;5043059;28;20203;-75
2022/05/26 05:02:04;;;;;;;1.03;0.57;;;;;;;;;;5040013;28;20270;-76
2022/05/26 05:04:31;;;;;;;0.83;0.60;;;;;;;;;;5043975;28;20254;-76
2022/05/26 05:06:59;;;;;;;5.63;1.13;;;;;;;;;;5043193;28;20212;-75
2022/05/26 05:09:26;;;;;;;2.40;0.80;;;;;;;;;;5037952;28;20250;-75
2022/05/26 05:11:53;;;;;;;3.77;0.60;;;;;;;;;;5044321;28;20230;-75
2022/05/26 05:14:21;;;;;;;1.93;1.00;;;;;;;;;;5040551;28;20207;-75
2022/05/26 05:16:49;;;;;;;1.70;0.60;;;;;;;;;;5043685;28;20204;-76
2022/05/26 05:19:20;;;;;;;2.83;0.67;;;;;;;;;;5041589;28;20223;-75
2022/05/26 05:21:51;;;;;;;2.00;0.90;;;;;;;;;;5038262;28;20234;-75
2022/05/26 05:24:20;;;;;;;3.33;1.03;;;;;;;;;;5039816;28;20204;-76
2022/05/26 05:26:50;;;;;;;1.50;0.90;;;;;;;;;;5043102;28;20630;-76
2022/05/26 05:29:19;;;;;;;3.90;0.70;;;;;;;;;;5041158;28;20760;-75
2022/05/26 05:31:47;;;;;;;3.87;0.90;;;;;;;;;;5040758;28;20314;-75
2022/05/26 05:34:16;;;;;;;2.67;0.70;;;;;;;;;;5038063;28;20760;-75
2022/05/26 05:36:44;;;;;;;3.30;0.80;;;;;;;;;;5039425;28;20211;-75
2022/05/26 05:39:11;;;;;;;4.00;0.90;;;;;;;;;;5044047;28;20615;-75
2022/05/26 05:41:38;;;;;;;2.27;0.90;;;;;;;;;;5039259;28;20705;-75
2022/05/26 05:44:06;;;;;;;4.10;1.13;;;;;;;;;;5038530;28;20309;-75
2022/05/26 05:46:53;;;;;;;2.63;0.77;;;;;;;;;;5044882;28;20207;-76
2022/05/26 05:49:22;;;;;;;3.10;1.00;;;;;;;;;;5043894;28;20212;-76
2022/05/26 05:51:50;;;;;;;4.47;1.10;;;;;;;;;;5037738;28;20233;-75
2022/05/26 05:54:17;;;;;;;2.30;0.93;;;;;;;;;;5042076;28;20242;-75
2022/05/26 05:56:44;;;;;;;2.67;0.83;;;;;;;;;;5041104;28;20265;-76
2022/05/26 05:59:12;;;;;;;3.70;1.00;;;;;;;;;;5040788;28;20214;-75
2022/05/26 06:01:39;;;;;;;4.37;1.23;;;;;;;;;;5042150;28;20314;-76
2022/05/26 06:04:07;;;;;;;9.33;1.20;;;;;;;;;;5044244;28;20308;-75
2022/05/26 06:06:39;;;;;;;3.43;1.03;;;;;;;;;;5042727;28;20301;-75
2022/05/26 06:09:07;;;;;;;3.50;1.17;;;;;;;;;;5043921;28;20211;-76
2022/05/26 06:11:34;;;;;;;3.47;1.00;;;;;;;;;;5042351;28;20736;-75
2022/05/26 06:14:02;;;;;;;4.00;1.67;;;;;;;;;;5042428;28;20553;-76
2022/05/26 06:16:29;;;;;;;3.67;1.30;;;;;;;;;;5040249;28;20223;-75
2022/05/26 06:18:56;;;;;;;4.83;1.03;;;;;;;;;;5045237;28;20214;-76
2022/05/26 06:21:23;;;;;;;2.67;1.10;;;;;;;;;;5045042;28;20220;-75
2022/05/26 06:23:56;;;;;;;5.13;0.97;;;;;;;;;;5043122;28;20223;-76
2022/05/26 06:26:24;;;;;;;3.93;1.00;;;;;;;;;;5040292;28;20230;-76
2022/05/26 06:31:36;;;;;;;3.13;1.27;;;;;;;;;;5040876;28;20238;-76
2022/05/26 06:39:34;;;;;;;4.37;1.30;;;;;;;;;;5040395;28;20238;-76
2022/05/26 06:42:07;;;;;;;5.77;1.30;;;;;;;;;;5041688;28;20579;-75
2022/05/26 06:44:35;;;;;;;5.80;1.00;;;;;;;;;;5044474;28;20294;-76
2022/05/26 06:47:02;;;;;;;5.30;1.30;;;;;;;;;;5041769;28;20275;-76
2022/05/26 06:49:29;;;;;;;3.40;1.30;;;;;;;;;;5044576;28;20294;-75
2022/05/26 06:51:56;;;;;;;7.77;1.40;;;;;;;;;;5040103;28;20226;-76
2022/05/26 06:54:23;;;;;;;5.10;1.27;;;;;;;;;;5050359;28;20253;-75
2022/05/26 06:56:52;;;;;;;3.33;1.10;;;;;;;;;;5047555;28;20207;-75
2022/05/26 06:59:19;;;;;;;3.50;1.20;;;;;;;;;;5046609;28;20657;-76
2022/05/26 07:01:46;;;;;;;4.40;1.30;;;;;;;;;;5045634;28;20215;-75
2022/05/26 07:04:13;;;;;;;5.57;1.30;;;;;;;;;;5047410;28;20692;-75
2022/05/26 07:06:40;;;;;;;8.10;1.40;;;;;;;;;;5046693;28;20208;-75
2022/05/26 07:09:08;;;;;;;4.80;1.40;;;;;;;;;;5046213;28;20663;-74
2022/05/26 07:11:35;;;;;;;3.60;1.30;;;;;;;;;;5047003;28;20266;-75
2022/05/26 07:14:04;;;;;;;4.37;1.60;;;;;;;;;;5045407;28;20207;-75
2022/05/26 07:16:31;;;;;;;3.63;1.10;;;;;;;;;;5044809;28;20207;-75
2022/05/26 07:18:58;;;;;;;3.57;1.20;;;;;;;;;;5044268;28;20587;-75
2022/05/26 07:21:25;;;;;;;5.37;1.43;;;;;;;;;;5047776;28;20315;-75
2022/05/26 07:23:53;;;;;;;2.70;1.20;;;;;;;;;;5048775;28;20318;-75
2022/05/26 07:26:21;;;;;;;7.33;1.60;;;;;;;;;;5043243;28;20291;-75
2022/05/26 07:28:51;;;;;;;4.83;1.60;;;;;;;;;;5049354;28;20210;-75
2022/05/26 07:31:20;;;;;;;4.03;1.40;;;;;;;;;;5044312;28;20627;-75
2022/05/26 07:33:47;;;;;;;10.17;1.60;;;;;;;;;;5048174;28;20203;-75
2022/05/26 07:41:41;;;;;;;5.40;1.60;;;;;;;;;;5045218;28;20231;-75
2022/05/26 07:44:08;;;;;;;3.97;1.50;;;;;;;;;;5049821;28;20211;-75
2022/05/26 07:46:37;;;;;;;7.30;1.60;;;;;;;;;;5044578;28;20238;-75
2022/05/26 07:49:05;;;;;;;5.13;1.23;;;;;;;;;;5048725;28;20211;-75
2022/05/26 07:51:32;;;;;;;6.57;1.60;;;;;;;;;;5042475;28;20901;-75
2022/05/26 07:54:00;;;;;;;6.80;1.60;;;;;;;;;;5045336;28;20254;-74
2022/05/26 07:56:29;;;;;;;6.50;1.70;;;;;;;;;;5046253;28;20211;-76
2022/05/26 07:58:56;;;;;;;6.93;2.00;;;;;;;;;;5044332;28;20578;-75
2022/05/26 08:01:24;;;;;;;3.80;1.53;;;;;;;;;;5045202;28;20605;-76
2022/05/26 08:03:53;;;;;;;6.10;1.20;;;;;;;;;;5045310;28;20633;-76
2022/05/26 08:06:20;;;;;;;4.17;1.40;;;;;;;;;;5041522;28;20205;-74
2022/05/26 08:08:48;;;;;;;5.70;1.87;;;;;;;;;;5049204;28;20294;-74
2022/05/26 08:11:15;;;;;;;5.37;1.73;;;;;;;;;;5043830;28;20227;-74
2022/05/26 08:13:42;;;;;;;4.30;1.33;;;;;;;;;;5046564;28;20650;-75
2022/05/26 08:16:10;;;;;;;4.77;1.40;;;;;;;;;;5045200;28;20235;-74
2022/05/26 08:18:37;;;;;;;4.10;1.57;;;;;;;;;;5043511;28;20215;-74
2022/05/26 08:21:09;;;;;;;5.03;1.47;;;;;;;;;;5042787;28;20203;-73
2022/05/26 08:23:36;;;;;;;6.47;1.77;;;;;;;;;;5043880;28;20700;-74
2022/05/26 08:26:03;;;;;;;5.17;1.60;;;;;;;;;;5044426;28;20288;-74
2022/05/26 08:28:31;;;;;;;6.20;1.30;;;;;;;;;;5045474;28;20212;-74
2022/05/26 08:30:59;;;;;;;3.33;1.40;;;;;;;;;;5043344;28;20646;-75
2022/05/26 08:33:26;;;;;;;8.90;1.40;;;;;;;;;;5041599;28;20223;-74
2022/05/26 08:36:00;;;;;;;4.73;1.30;;;;;;;;;;5047811;28;20207;-74
2022/05/26 08:38:28;;;;;;;4.93;1.30;;;;;;;;;;5044712;28;20547;-74
2022/05/26 08:40:56;;;;;;;5.80;1.40;;;;;;;;;;5045677;28;20541;-74
2022/05/26 08:43:24;;;;;;;4.07;1.67;;;;;;;;;;5042893;28;20212;-73
2022/05/26 08:45:52;;;;;;;5.23;1.50;;;;;;;;;;5043306;28;20252;-73
2022/05/26 08:48:33;;;;;;;7.20;2.00;;;;;;;;;;5043264;28;20254;-73
2022/05/26 08:51:00;;;;;;;4.50;1.27;;;;;;;;;;5043189;28;20199;-74
2022/05/26 08:53:31;;;;;;;6.77;1.50;;;;;;;;;;5044142;28;20258;-74
2022/05/26 08:56:00;;;;;;;7.40;1.50;;;;;;;;;;5042968;28;20286;-74
2022/05/26 08:58:29;;;;;;;9.20;1.63;;;;;;;;;;5043296;28;20731;-74
2022/05/26 09:00:59;;;;;;;7.67;1.40;;;;;;;;;;5042908;28;20213;-74
2022/05/26 09:03:27;;;;;;;5.00;1.80;;;;;;;;;;5040139;28;20231;-74
2022/05/26 09:05:59;;;;;;;5.30;1.53;;;;;;;;;;5044478;28;20896;-74
2022/05/26 09:14:21;;;;;;;4.97;1.40;;;;;;;;;;5002058;28;20205;-74
2022/05/26 09:16:48;;;;;;;4.00;1.43;;;;;;;;;;5001381;28;20211;-73
2022/05/26 09:19:17;;;;;;;6.37;1.93;;;;;;;;;;5023405;28;20260;-74
2022/05/26 09:21:44;;;;;;;8.43;2.27;;;;;;;;;;5038858;28;20218;-73
2022/05/26 09:24:22;;;;;;;7.17;1.70;;;;;;;;;;5044597;28;20492;-73
2022/05/26 09:26:55;;;;;;;4.27;1.77;;;;;;;;;;5043072;28;20626;-73
2022/05/26 09:29:25;;;;;;;5.67;1.60;;;;;;;;;;5042423;28;20621;-74
2022/05/26 09:31:52;;;;;;;4.70;1.43;;;;;;;;;;5041882;28;20246;-74
2022/05/26 09:34:21;;;;;;;6.53;1.80;;;;;;;;;;5045603;28;20207;-75
2022/05/26 09:36:49;;;;;;;4.90;1.37;;;;;;;;;;5042448;28;20273;-73
2022/05/26 09:39:19;;;;;;;4.87;1.70;;;;;;;;;;5044906;28;20203;-73
2022/05/26 09:41:48;;;;;;;4.97;1.50;;;;;;;;;;5040368;28;20255;-74
2022/05/26 09:44:23;;;;;;;10.63;1.90;;;;;;;;;;5040299;28;20306;-75
2022/05/26 09:46:51;;;;;;;4.80;1.50;;;;;;;;;;5043928;28;20202;-75
2022/05/26 09:49:23;;;;;;;5.53;1.70;;;;;;;;;;5044509;28;20390;-74
2022/05/26 09:51:50;;;;;;;6.67;1.97;;;;;;;;;;5043579;28;20237;-74
2022/05/26 09:54:22;;;;;;;8.90;1.60;;;;;;;;;;5045380;28;20235;-74
2022/05/26 09:56:49;;;;;;;6.43;1.87;;;;;;;;;;5041284;28;20234;-74
2022/05/26 09:59:25;;;;;;;6.73;1.67;;;;;;;;;;5040050;28;20286;-74
2022/05/26 10:01:54;;;;;;;4.87;1.70;;;;;;;;;;5045304;28;20666;-74
2022/05/26 10:04:29;;;;;;;9.87;2.17;;;;;;;;;;5044575;28;20237;-74
2022/05/26 10:06:59;;;;;;;13.13;2.20;;;;;;;;;;5043154;28;20206;-74
2022/05/26 10:09:32;;;;;;;5.27;1.70;;;;;;;;;;5044850;28;20222;-74
2022/05/26 10:12:04;;;;;;;5.17;2.00;;;;;;;;;;5040807;28;20284;-73
2022/05/26 10:14:43;;;;;;;8.20;1.87;;;;;;;;;;5042595;28;20203;-74
2022/05/26 10:17:16;;;;;;;5.67;2.00;;;;;;;;;;5041354;28;20211;-74
2022/05/26 10:20:01;;;;;;;10.40;1.87;;;;;;;;;;5043366;28;20203;-74
2022/05/26 10:22:35;;;;;;;7.03;1.97;;;;;;;;;;5042584;28;20782;-74
2022/05/26 10:25:10;;;;;;;5.53;2.10;;;;;;;;;;5042918;28;20203;-74
2022/05/26 10:27:42;;;;;;;5.53;1.87;;;;;;;;;;5044441;28;20626;-74
2022/05/26 10:30:21;;;;;;;6.67;1.97;;;;;;;;;;5045977;28;20203;-75
2022/05/26 10:32:57;;;;;;;4.37;1.60;;;;;;;;;;5048817;28;20313;-75
2022/05/26 10:35:25;;;;;;;8.27;1.80;;;;;;;;;;5045967;28;20643;-75
2022/05/26 10:38:11;;;;;;;8.00;1.70;;;;;;;;;;5047517;28;20293;-75
2022/05/26 10:40:43;;;;;;;7.50;1.80;;;;;;;;;;5046634;28;20206;-74
2022/05/26 10:43:12;;;;;;;3.87;2.00;;;;;;;;;;5043979;28;20553;-74
2022/05/26 10:45:42;;;;;;;6.37;1.90;;;;;;;;;;5045357;28;20211;-73
2022/05/26 10:48:11;;;;;;;7.70;1.83;;;;;;;;;;5046391;28;20290;-75
2022/05/26 10:50:41;;;;;;;4.37;1.50;;;;;;;;;;5044416;28;20281;-75
2022/05/26 10:53:13;;;;;;;7.83;2.17;;;;;;;;;;5046435;28;20310;-74
2022/05/26 10:55:43;;;;;;;5.43;2.00;;;;;;;;;;5046493;28;20209;-74
2022/05/26 10:58:12;;;;;;;7.00;1.80;;;;;;;;;;5043697;28;20203;-74
2022/05/26 11:00:41;;;;;;;8.33;1.60;;;;;;;;;;5045751;28;20687;-75
2022/05/26 11:03:11;;;;;;;7.00;1.70;;;;;;;;;;5048667;28;20306;-74
2022/05/26 11:05:41;;;;;;;5.47;1.40;;;;;;;;;;5045690;28;20305;-74
2022/05/26 11:08:17;;;;;;;3.93;1.50;;;;;;;;;;5046778;28;20582;-74
2022/05/26 11:10:46;;;;;;;3.60;1.60;;;;;;;;;;5043997;28;20234;-75
2022/05/26 11:13:19;;;;;;;4.07;1.60;;;;;;;;;;5044012;28;20697;-74
2022/05/26 11:18:37;;;;;;;7.03;1.50;;;;;;;;;;5044205;28;20399;-73
2022/05/26 11:21:04;;;;;;;4.27;1.33;;;;;;;;;;5042343;28;20657;-74
2022/05/26 11:23:33;;;;;;;7.73;1.70;;;;;;;;;;5046235;28;20195;-74
2022/05/26 11:26:02;;;;;;;3.57;1.63;;;;;;;;;;5046152;28;20217;-75
2022/05/26 11:28:32;;;;;;;6.00;1.47;;;;;;;;;;5047056;28;20654;-75
2022/05/26 11:36:49;;;;;;;7.23;1.40;;;;;;;;;;5035908;28;20218;-73
2022/05/26 11:39:21;;;;;;;2.27;1.40;;;;;;;;;;5042089;28;20222;-75
2022/05/26 11:41:50;;;;;;;4.43;1.40;;;;;;;;;;5044483;28;20262;-74
2022/05/26 11:44:31;;;;;;;3.37;1.27;;;;;;;;;;5041563;28;20642;-75
2022/05/26 11:47:13;;;;;;;4.30;1.40;;;;;;;;;;5044652;28;20202;-74
2022/05/26 11:49:59;;;;;;;8.33;1.77;;;;;;;;;;5043037;28;20288;-74
2022/05/26 11:52:28;;;;;;;5.33;1.80;;;;;;;;;;5044480;28;20543;-74
2022/05/26 11:55:08;;;;;;;7.13;1.63;;;;;;;;;;5045644;28;20313;-74
2022/05/26 11:57:36;;;;;;;6.70;1.70;;;;;;;;;;5043029;28;20290;-74
2022/05/26 12:00:19;;;;;;;8.63;1.50;;;;;;;;;;5042925;28;20302;-75
2022/05/26 12:02:50;;;;;;;3.47;1.47;;;;;;;;;;5045426;28;20241;-75
2022/05/26 12:05:41;;;;;;;5.67;1.80;;;;;;;;;;5043394;28;20214;-74
2022/05/26 12:08:25;;;;;;;4.27;1.63;;;;;;;;;;5028194;28;20333;-74
2022/05/26 12:10:53;;;;;;;2.47;1.30;;;;;;;;;;5046939;28;20282;-75
2022/05/26 12:13:28;;;;;;;5.10;1.90;;;;;;;;;;5042323;28;20229;-75
2022/05/26 12:16:05;;;;;;;4.37;1.50;;;;;;;;;;5043869;28;20214;-75
2022/05/26 12:18:40;;;;;;;4.40;1.50;;;;;;;;;;5041855;28;20195;-75
2022/05/26 12:21:14;;;;;;;5.27;1.40;;;;;;;;;;5041099;28;20230;-76
2022/05/26 12:23:42;;;;;;;3.27;1.20;;;;;;;;;;5045852;28;20289;-75
2022/05/26 12:26:28;;;;;;;3.87;1.60;;;;;;;;;;5039972;28;20206;-76
2022/05/26 12:28:55;;;;;;;4.27;1.43;;;;;;;;;;5045705;28;20195;-75
2022/05/26 12:31:22;;;;;;;5.87;1.30;;;;;;;;;;5040961;28;20616;-75
2022/05/26 12:34:08;;;;;;;3.67;1.30;;;;;;;;;;5045053;28;20223;-74
2022/05/26 12:36:57;;;;;;;6.43;1.63;;;;;;;;;;5045118;28;20221;-75
2022/05/26 12:39:36;;;;;;;5.13;1.63;;;;;;;;;;5042337;28;20203;-74
2022/05/26 12:42:06;;;;;;;5.73;1.30;;;;;;;;;;5042642;28;20240;-75
2022/05/26 12:44:43;;;;;;;3.23;1.37;;;;;;;;;;5044216;28;20289;-75
2022/05/26 12:47:21;;;;;;;4.23;1.30;;;;;;;;;;5040566;28;20297;-74
2022/05/26 12:50:03;;;;;;;4.37;1.23;;;;;;;;;;5042074;28;20219;-75
2022/05/26 12:52:34;;;;;;;6.90;1.60;;;;;;;;;;5044282;28;20483;-76
2022/05/26 12:55:17;;;;;;;4.70;1.50;;;;;;;;;;5045659;28;20223;-75
2022/05/26 12:57:47;;;;;;;5.90;1.50;;;;;;;;;;5042882;28;20296;-75
2022/05/26 13:00:22;;;;;;;4.83;1.60;;;;;;;;;;5041513;28;20203;-75
2022/05/26 13:02:50;;;;;;;10.53;1.87;;;;;;;;;;5042679;28;20272;-75
2022/05/26 13:05:18;;;;;;;8.90;1.60;;;;;;;;;;5042399;28;20287;-75
2022/05/26 13:07:50;;;;;;;7.47;1.60;;;;;;;;;;5041915;28;20203;-74
2022/05/26 13:10:18;;;;;;;6.63;1.63;;;;;;;;;;5042454;28;20215;-74
2022/05/26 13:12:47;;;;;;;6.87;1.40;;;;;;;;;;5044452;28;20309;-75
2022/05/26 13:15:21;;;;;;;4.27;1.60;;;;;;;;;;5041254;28;20570;-75
2022/05/26 13:17:49;;;;;;;5.07;1.73;;;;;;;;;;5044818;28;20208;-74
2022/05/26 13:20:22;;;;;;;7.10;2.03;;;;;;;;;;5039628;28;20615;-75
2022/05/26 13:22:51;;;;;;;2.77;1.70;;;;;;;;;;5041019;28;20318;-75
2022/05/26 13:25:23;;;;;;;9.30;2.10;;;;;;;;;;5041917;28;20666;-75
2022/05/26 13:27:51;;;;;;;5.53;1.90;;;;;;;;;;5043718;28;20638;-75
2022/05/26 13:33:11;;;;;;;6.40;1.83;;;;;;;;;;5044036;28;20222;-74
2022/05/26 13:35:42;;;;;;;4.43;1.60;;;;;;;;;;5042162;28;20286;-75
2022/05/26 13:38:24;;;;;;;8.67;2.20;;;;;;;;;;5043189;28;20205;-75
2022/05/26 13:40:52;;;;;;;5.33;1.63;;;;;;;;;;5041516;28;20195;-75
2022/05/26 13:43:20;;;;;;;5.23;1.60;;;;;;;;;;5043791;28;20692;-76
2022/05/26 13:45:47;;;;;;;5.70;2.00;;;;;;;;;;5043012;28;20203;-75
2022/05/26 13:48:35;;;;;;;9.03;2.07;;;;;;;;;;5043137;28;20211;-75
2022/05/26 13:51:05;;;;;;;5.07;1.50;;;;;;;;;;5046222;28;20206;-75
2022/05/26 13:53:39;;;;;;;4.33;1.50;;;;;;;;;;5042779;28;20297;-75
2022/05/26 13:56:07;;;;;;;4.23;1.80;;;;;;;;;;5043202;28;20289;-75
2022/05/26 13:58:35;;;;;;;8.33;1.77;;;;;;;;;;5042931;28;20206;-75
2022/05/26 14:01:04;;;;;;;5.77;2.00;;;;;;;;;;5041319;28;20227;-76
2022/05/26 14:03:32;;;;;;;5.83;2.40;;;;;;;;;;5043935;28;20313;-75
2022/05/26 14:06:01;;;;;;;8.70;2.00;;;;;;;;;;5041524;28;20258;-75
2022/05/26 14:08:28;;;;;;;6.87;1.80;;;;;;;;;;5043077;28;20209;-75
2022/05/26 14:10:58;;;;;;;7.00;2.00;;;;;;;;;;5040363;28;20235;-76
2022/05/26 14:13:35;;;;;;;6.30;2.00;;;;;;;;;;5041177;28;20211;-75
2022/05/26 14:16:23;;;;;;;7.17;2.00;;;;;;;;;;5041552;28;20661;-75
2022/05/26 14:18:52;;;;;;;5.43;2.13;;;;;;;;;;5042557;28;20210;-75
2022/05/26 14:21:28;;;;;;;9.77;2.13;;;;;;;;;;5041091;28;20661;-75
2022/05/26 14:23:57;;;;;;;3.90;1.70;;;;;;;;;;5044265;28;20202;-75
2022/05/26 14:26:30;;;;;;;4.70;2.00;;;;;;;;;;5041131;28;20202;-75
2022/05/26 14:28:57;;;;;;;5.93;2.20;;;;;;;;;;5041446;28;20200;-75
2022/05/26 14:31:27;;;;;;;3.77;2.00;;;;;;;;;;5043248;28;20618;-75
2022/05/26 14:33:58;;;;;;;10.27;2.00;;;;;;;;;;5044549;28;20241;-75
2022/05/26 14:36:26;;;;;;;6.83;2.20;;;;;;;;;;5041563;28;20308;-75
2022/05/26 14:38:53;;;;;;;4.80;1.53;;;;;;;;;;5041374;28;20234;-76
2022/05/26 14:41:20;;;;;;;7.67;2.50;;;;;;;;;;5046266;28;20314;-74
2022/05/26 14:43:52;;;;;;;7.07;2.00;;;;;;;;;;5041990;28;20278;-75
2022/05/26 14:46:20;;;;;;;5.17;2.10;;;;;;;;;;5045526;28;20211;-75
2022/05/26 14:48:47;;;;;;;6.93;2.10;;;;;;;;;;5039512;28;20225;-76
2022/05/26 14:51:14;;;;;;;5.60;2.07;;;;;;;;;;5040694;28;20389;-75
2022/05/26 14:56:27;;;;;;;6.77;2.13;;;;;;;;;;5043101;28;20215;-75
2022/05/26 14:58:55;;;;;;;5.60;2.10;;;;;;;;;;5043229;28;20206;-75
2022/05/26 15:01:22;;;;;;;5.53;1.90;;;;;;;;;;5043654;28;20894;-75
2022/05/26 15:03:49;;;;;;;7.63;2.10;;;;;;;;;;5042978;28;20207;-75
2022/05/26 15:06:18;;;;;;;5.67;2.03;;;;;;;;;;5042542;28;20298;-76
2022/05/26 15:08:45;;;;;;;6.63;1.83;;;;;;;;;;5039886;28;20274;-74
2022/05/26 15:11:15;;;;;;;6.33;1.93;;;;;;;;;;5041310;28;20295;-74
2022/05/26 15:13:42;;;;;;;4.27;1.70;;;;;;;;;;5042086;28;20631;-75
2022/05/26 15:16:12;;;;;;;4.60;1.90;;;;;;;;;;5050777;28;20283;-75
2022/05/26 15:18:40;;;;;;;8.07;1.90;;;;;;;;;;5044381;28;20649;-75
2022/05/26 15:21:07;;;;;;;5.87;1.90;;;;;;;;;;5041288;28;20296;-75
2022/05/26 15:23:35;;;;;;;4.53;1.87;;;;;;;;;;5048325;28;20288;-75
2022/05/26 15:26:11;;;;;;;4.03;1.83;;;;;;;;;;5048063;28;20288;-75
2022/05/26 15:28:38;;;;;;;7.13;2.00;;;;;;;;;;5042970;28;20202;-75
2022/05/26 15:31:05;;;;;;;6.23;2.53;;;;;;;;;;5044629;28;20302;-74
2022/05/26 15:33:34;;;;;;;6.47;2.00;;;;;;;;;;5043715;28;20598;-76
2022/05/26 15:36:01;;;;;;;4.97;1.77;;;;;;;;;;5046636;28;20770;-75
2022/05/26 15:38:32;;;;;;;7.40;2.17;;;;;;;;;;5044556;28;20218;-75
2022/05/26 15:41:00;;;;;;;12.77;3.07;;;;;;;;;;5047947;28;20576;-75
2022/05/26 15:43:28;;;;;;;5.37;1.87;;;;;;;;;;5041692;28;20588;-73
2022/05/26 15:45:55;;;;;;;9.10;4.27;;;;;;;;;;5048446;28;20203;-75